Gallatin, TN

12:15 PM CST on March 06, 2015 (GMT -0600)
Foxfire 2 Subdivision | Change Station
CLOSE
Current Station
Personal Weather Station
Location: Gallatin, TN
Elevation: 479 ft
Nearby Weather Stations
Active Advisory: Special Statement Active Notice: Record Report, Local Storm Report

Elev 479 ft 36.37 °N, 86.46 °W | Updated 10 seconds ago

Clear
Clear
27.5 °F
Feels Like 28 °F
N
1.3
Wind Variable Wind from NE
Gusts 2.9 mph

Today
High -- | Low -- °F
--% Chance of Precip.
Yesterday
High -- | Low -- °F
Precip. -- in
6:09 AM 5:44 PM
Full, 99% visible
Pressure 30.60 in
Visibility 10.0 miles
Clouds Clear
Windchill 28 °F
Dew Point 25 °F
Humidity 91%
Rainfall in
Snow Depth Not available.
UV 3.0 out of 12
Pollen 2.70 out of 12
Air Quality Not available.
Flu Activity Not available.
METAR KBNA 061753Z 00000KT 10SM CLR M01/M09 A3058 RMK AO2 SLP362 T10111089 11011 21117 58006

More Conditions Fewer Conditions

Pressure 30.60 in
Visibility 10.0 miles
Clouds Clear
Windchill 28 °F
Dew Point 25 °F
Humidity 91%
Rainfall in
Snow Depth Not available.
UV 3.0 out of 12
Pollen 2.70 out of 12
Air Quality Not available.
Flu Activity Not available.
METAR KBNA 061753Z 00000KT 10SM CLR M01/M09 A3058 RMK AO2 SLP362 T10111089 11011 21117 58006

More Conditions Fewer Conditions

10-Day Weather Forecast

Almanac

Astronomy

Mar. 06, 2015 Rise Set
Actual Time
Civil Twilight
Nautical Twilight
Astronomical Twilight
Moon
Length of Visible Light
Length of Day
Tomorrow will be .
, % of the Moon is Illuminated

Today's Extremes

State Highs State Lows

Community

WunderPhotos

Upload Photos

1,803,357 photos uploaded!

WunderBlogs® & News

Nearby

Air Quality

  Air Quality AQ Index Pollutant
Not available.

Snow Depth

Station Depth Elevation

Earthquake Activity

City Distance Mag. Time & Date
Minimum magnitude displayed is 2.5.

Coastal Water Temperatures

Place Temperature

Nearby Weather Stations

Special Statement
Statement as of 5:26 AM CST on March 06, 2015

... Travel conditions still hazardous around middle Tennessee...

The heavy accumulations of snow and sleet from Wednesday night
and Thursday morning will continue to result in hazardous driving
conditions around the mid-state today. While the sun will be out
in full strength... temperatures will only top out in the low to
middle 30s. Many roads around middle TN... especially those less
traveled secondary roads... will remain ice and snow covered.

Any melting that does occur today will refreeze tonight as
temperatures fall back into the upper teens and low 20s... causing
patchy black ice and slick Road conditions once again.